Amargosa Valley, Nevada Weather observations

Data are for observation ending at time listed.
 Day   Time    Ave.   Ave.  Ave.  Vector   Max.   Stn.    Total    Solar   Ave.  
  of    of     Air    Rel.  Wind   Wind    Wind   Baro.  Precip.   Rad.    Soil  
Year   Day     Temp.  Hum.  Speed  Dir.    Gust   Pres.                    Temp. 
2014   (PST)    F      %     mph   deg.    mph     mb.     in.     W/m2     F   
------------------------------------------------------------------------------
 303   18:40   71.2    15    4.5   125      9.1   928.2    0.00       0    76.6
 303   18:50   71.2    15    3.7   134      6.6   928.3    0.00       0    76.6
 303   19:00   70.8    16    5.5   175      8.5   928.3    0.00       0    76.6
 303   19:10   71.4    16    5.2   161      9.8   928.2    0.00       0    76.5
 303   19:20   71.3    16    6.0   171      8.6   928.2    0.00       0    76.5
 303   19:30   70.9    16    4.1   143      6.4   928.2    0.00       0    76.5
 303   19:40   69.6    16    4.4   119      5.8   928.2    0.00       0    76.4
 303   19:50   68.5    17    3.9   111      5.4   928.2    0.00       0    76.4
 303   20:00   68.1    17    4.1   112      5.6   928.1    0.00       0    76.3
 303   20:10   68.3    17    4.6   106      6.0   928.0    0.00       0    76.3
 303   20:20   67.2    18    3.9    98      5.3   928.1    0.00       0    76.2
 303   20:30   66.7    18    3.8   112      4.9   928.0    0.00       0    76.2
 303   20:40   67.4    17    4.2   134      6.2   928.0    0.00       0    76.1
 303   20:50   68.0    17    3.6    95      4.9   928.0    0.00       0    76.0
 303   21:00   67.7    17    5.8    88      8.8   927.8    0.00       0    76.0
 303   21:10   68.5    16    4.9    95      7.3   927.9    0.00       0    75.9
 303   21:20   68.0    16    2.0    96      3.5   928.1    0.00       0    75.8
 303   21:30   68.1    16    3.7    83      5.6   928.2    0.00       0    75.8
 303   21:40   68.1    16    4.3    82      5.7   928.1    0.00       0    75.7
 303   21:50   67.2    17    4.2    80      6.8   928.0    0.00       0    75.7
 303   22:00   65.9    18    5.0    94      6.3   928.1    0.00       0    75.6
 303   22:10   65.9    18    5.1    98      6.6   928.2    0.00       0    75.5
 303   22:20   66.2    18    5.9    98      6.7   928.2    0.00       0    75.5
 303   22:30   66.1    18    5.1    92      6.2   928.2    0.00       0    75.4
 303   22:40   67.4    18    6.3    84      8.3   928.0    0.00       0    75.3
 303   22:50   67.8    17    5.6    81      7.4   928.0    0.00       0    75.3
 303   23:00   66.9    18    3.5    70      5.5   928.1    0.00       0    75.2
 303   23:10   64.5    19    4.2    70      7.9   927.9    0.00       0    75.2
 303   23:20   64.9    19    4.3    89      5.6   927.9    0.00       0    75.1
 303   23:30   64.7    19    4.3    79      6.4   927.9    0.00       0    75.0
 303   23:40   61.3    20    1.0    20      2.7   928.0    0.00       0    75.0
 303   23:50   60.2    21    3.1    32      4.8   927.9    0.00       0    74.9
 304    0:00   61.6    21    3.7    70      7.5   927.8    0.00       0    74.9
 304    0:10   63.1    20    6.2    84      8.1   927.6    0.00       0    74.8
 304    0:20   62.4    20    7.1    84      8.5   927.5    0.00       0    74.7
 304    0:30   62.6    20    4.5    62      7.7   927.6    0.00       0    74.6
 304    0:40   59.6    22    3.3    36      5.0   927.5    0.00       0    74.5
 304    0:50   60.6    22    3.6    70      6.9   927.4    0.00       0    74.4
 304    1:00   61.3    22    3.1    59      6.3   927.3    0.00       0    74.4
 304    1:10   59.0    23    3.3    34      5.0   927.2    0.00       0    74.3
 304    1:20   58.5    23    3.2    48      6.4   927.1    0.00       0    74.2
 304    1:30   59.0    23    2.0    40      4.5   927.0    0.00       0    74.1
 304    1:40   56.4    25    2.7    28      5.1   927.0    0.00       0    74.0
 304    1:50   56.0    25    3.4    32      5.9   926.9    0.00       0    74.0
 304    2:00   56.5    25    2.2    48      4.7   926.8    0.00       0    73.9
 304    2:10   57.1    25    4.1    79      7.4   926.7    0.00       0    73.8
 304    2:20   59.0    24    1.8   124      5.0   926.7    0.00       0    73.7
 304    2:30   57.5    25    0.8   318      4.1   926.6    0.00       0    73.6
 304    2:40   57.8    25    1.5   354      4.2   926.5    0.00       0    73.6
 304    2:50   57.0    26    0.4     4      2.6   926.5    0.00       0    73.5
 304    3:00   57.6    25    0.7    45      4.7   926.3    0.00       0    73.4
 304    3:10   58.2    25    1.1    33      3.9   926.4    0.00       0    73.3
 304    3:20   58.0    25    3.8    47      6.1   926.4    0.00       0    73.2
 304    3:30   57.3    26    3.4    53      5.6   926.5    0.00       0    73.1
 304    3:40   58.7    25    5.0    71      9.3   926.5    0.00       0    73.0
 304    3:50   60.0    24    7.1    80      9.8   926.5    0.00       0    72.9
 304    4:00   61.0    24    6.3    74      9.9   926.4    0.00       0    72.8
 304    4:10   57.1    26    4.0    36      7.0   926.4    0.00       0    72.8
 304    4:20   58.1    26    3.6    61      8.0   926.4    0.00       0    72.7
 304    4:30   59.0    25    2.7    59      5.1   926.4    0.00       0    72.6
 304    4:40   59.0    25    4.4    79      6.9   926.3    0.00       0    72.5
 304    4:50   58.4    25    4.1    95      7.3   926.2    0.00       0    72.4
 304    5:00   57.6    26    2.1    88      3.7   926.2    0.00       0    72.3
 304    5:10   56.7    27    0.3     5      1.8   926.3    0.00       0    72.3
 304    5:20   56.4    28    1.7    90      2.9   926.3    0.00       0    72.2
 304    5:30   56.0    28    3.4   106      4.7   926.3    0.00       0    72.1
 304    5:40   56.4    27    5.2    92      6.6   926.2    0.00       0    72.1
 304    5:50   58.1    26    6.6    90      8.8   926.2    0.00       0    72.0
 304    6:00   60.1    25    5.0    96      9.8   926.3    0.00       0    71.9
 304    6:10   61.4    25    5.0   103      8.9   926.4    0.00       2    71.8
 304    6:20   62.3    24    6.0   112     10.2   926.4    0.00       7    71.7
 304    6:30   62.2    24    5.2   120      8.5   926.6    0.00      28    71.6
 304    6:40   62.1    24    5.4   108      8.3   926.7    0.00      53    71.5
 304    6:50   61.6    25    3.3   119      6.6   926.8    0.00      80    71.4
 304    7:00   62.0    25    3.1   146      5.4   926.9    0.00     117    71.3
 304    7:10   62.7    24    4.8   124      6.8   927.0    0.00     149    71.3
 304    7:20   63.4    24    4.8   117      6.9   927.2    0.00     179    71.2
 304    7:30   64.2    23    5.2   107      7.5   927.2    0.00     210    71.1
 304    7:40   65.1    23    5.1   109      7.1   927.4    0.00     241    71.0
 304    7:50   65.7    22    4.3   112      6.6   927.5    0.00     273    70.9
 304    8:00   65.6    23    5.6    90      9.4   927.6    0.00     306    70.9
 304    8:10   65.9    23    5.7    93      9.3   927.7    0.00     335    70.8
 304    8:20   66.6    22    4.7   107      9.3   927.8    0.00     361    70.8
 304    8:30   67.0    22    3.6    94      7.5   927.7    0.00     391    70.7
 304    8:40   67.7    22    3.8    86      7.5   927.6    0.00     198    70.7
 304    8:50   68.0    22    4.4    93      7.8   927.6    0.00     284    70.7
 304    9:00   69.4    22    5.3   133      8.3   927.5    0.00     464    70.7
 304    9:10   70.0    22    6.6   147     10.2   927.4    0.00     488    70.7
 304    9:20   71.1    21    7.3   138     10.7   927.4    0.00     512    70.7
 304    9:30   71.7    21    8.4   146     12.7   927.5    0.00     538    70.7
 304    9:40   72.7    20    8.5   151     12.2   927.4    0.00     563    70.7
 304    9:50   73.8    20    9.9   152     13.9   927.2    0.00     578    70.7
 304   10:00   74.9    20   12.2   166     18.8   927.2    0.00     592    70.7
 304   10:10   75.2    20   13.8   162     19.7   927.1    0.00     600    70.8
 304   10:20   75.4    20   14.7   160     20.0   927.0    0.00     622    70.8
 304   10:30   75.7    20   13.8   156     19.8   926.9    0.00     640    70.9
 304   10:40   76.1    20   13.6   158     20.0   926.8    0.00     659    71.0
 304   10:50   76.0    20   13.9   153     20.1   926.7    0.00     667    71.1
 304   11:00   76.1    20   14.7   162     20.8   926.4    0.00     679    71.2
 304   11:10   76.5    19   13.7   153     20.0   926.2    0.00     658    71.2
 304   11:20   76.5    19   13.9   151     18.6   926.1    0.00     585    71.3
 304   11:30   76.6    20   14.3   160     24.3   925.8    0.00     626    71.5
 304   11:40   76.6    20   15.8   173     23.7   925.5    0.00     529    71.5
 304   11:50   76.6    20   16.4   172     24.4   925.2    0.00     587    71.6
 304   12:00   77.5    19   15.7   176     22.8   925.0    0.00     564    71.7
 304   12:10   77.2    19   16.0   160     21.4   924.8    0.00     529    71.8
 304   12:20   77.2    19   15.1   169     21.2   924.6    0.00     481    71.9
 304   12:30   77.0    19   15.9   165     21.7   924.5    0.00     457    72.1
 304   12:40   77.3    19   14.2   174     21.9   924.2    0.00     424    72.2
 304   12:50   77.3    19   14.4   173     21.3   924.2    0.00     409    72.3
 304   13:00   77.3    19   14.2   173     19.0   924.0    0.00     376    72.4
 304   13:10   77.4    19   14.3   174     20.6   923.9    0.00     308    72.6
 304   13:20   76.6    19   14.5   164     20.5   923.8    0.00     286    72.7
 304   13:30   76.9    19   13.3   172     19.1   923.6    0.00     348    72.8
 304   13:40   77.1    19   14.6   164     22.9   923.5    0.00     357    72.9
 304   13:50   77.0    19   14.3   166     19.9   923.3    0.00     314    73.1
 304   14:00   77.2    18   14.9   158     21.7   923.3    0.00     333    73.2
 304   14:10   77.0    19   13.2   158     17.5   923.2    0.00     222    73.3
 304   14:20   76.9    19   13.5   168     20.5   923.1    0.00     202    73.4
 304   14:30   77.0    19   14.2   168     19.4   923.0    0.00     218    73.5
 304   14:40   76.9    19   12.9   170     18.3   922.9    0.00     199    73.6
 304   14:50   76.9    19   13.0   182     21.7   922.7    0.00     167    73.7
 304   15:00   77.0    18   12.1   179     16.1   922.7    0.00     167    73.8
 304   15:10   77.0    19   11.8   174     16.8   922.6    0.00     180    73.9
 304   15:20   77.0    18   12.3   180     18.7   922.5    0.00     155    74.0
 304   15:30   76.7    18   12.3   179     18.6   922.4    0.00     117    74.1
 304   15:40   76.4    18   13.0   179     17.8   922.2    0.00      92    74.2
 304   15:50   76.0    19   12.2   180     17.4   921.9    0.00      74    74.2
 304   16:00   75.8    19   13.1   177     18.5   921.8    0.00      58    74.3
 304   16:10   75.3    20   10.8   176     15.8   921.7    0.00      47    74.4
 304   16:20   74.9    20   10.6   175     16.6   921.6    0.00      34    74.4
 304   16:30   74.6    20   11.0   177     15.7   921.4    0.00      21    74.5
 304   16:40   74.5    20   13.2   185     20.1   921.2    0.00      12    74.5
 304   16:50   74.2    20   12.4   188     17.0   921.1    0.00       6    74.5
 304   17:00   73.8    20   11.0   181     15.5   921.2    0.00       3    74.6
 304   17:10   73.3    21   10.2   188     14.8   921.0    0.00       0    74.6
 304   17:20   73.2    21   11.2   195     16.1   920.9    0.00       0    74.6
 304   17:30   73.0    21   10.5   188     15.3   920.8    0.00       0    74.6
 304   17:40   72.9    22   12.0   189     18.2   920.7    0.00       0    74.7
 304   17:50   73.5    21   14.0   195     19.9   920.7    0.00       0    74.7
 304   18:00   73.1    22   12.2   186     18.3   920.6    0.00       0    74.7
 304   18:10   72.4    22   11.1   178     14.8   920.7    0.00       0    74.7
 304   18:20   72.1    23   10.9   181     14.3   920.7    0.00       0    74.7
 304   18:30   71.7    23   10.7   179     16.1   920.5    0.00       0    74.7

Return to Amargosa Valley, Nevada graphs page.


Western Regional Climate Center,wrcc@dri.edu